PRIVATE WETTERSTATION BILLIGHEIM-ALLFELD                       ZURCK
Wetterdaten: Freitag, 20.05.2016
Datum Zeit Temp. A. Temp. A. min Temp. A. max Feuchte A. Luftdruck Regen Wind Richtung Richtung Sonnenschein ET Solar Taupunkt Windchill Windben Empfang
20.05.2016 00:00 10,6 C 10,6 C 10,7 C 81 % 1017,4 hPa 0,0 l/m 0,0 km/h (0 Bft) N 0 0 min 0,025 mm 0 W/m 7,5 C 10,6 C 0,0 km/h (0 Bft) 99 %
20.05.2016 00:10 10,5 C 10,5 C 10,6 C 82 % 1017,5 hPa 0,0 l/m 0,0 km/h (0 Bft) N 0 0 min 0,000 mm 0 W/m 7,6 C 10,5 C 0,0 km/h (0 Bft) 70 %
20.05.2016 00:20 10,3 C 10,3 C 10,5 C 82 % 1017,5 hPa 0,0 l/m 0,0 km/h (0 Bft) N 0 0 min 0,000 mm 0 W/m 7,4 C 10,3 C 0,0 km/h (0 Bft) 100 %
20.05.2016 00:30 10,1 C 10,1 C 10,3 C 83 % 1017,6 hPa 0,0 l/m 0,0 km/h (0 Bft) W 270 0 min 0,000 mm 0 W/m 7,3 C 10,1 C 3,2 km/h (1 Bft) 100 %
20.05.2016 00:40 10,0 C 10,0 C 10,1 C 84 % 1017,8 hPa 0,0 l/m 0,0 km/h (0 Bft) S 180 0 min 0,000 mm 0 W/m 7,4 C 10,0 C 8,0 km/h (2 Bft) 100 %
20.05.2016 00:50 9,9 C 9,9 C 10,0 C 84 % 1017,8 hPa 0,0 l/m 0,0 km/h (0 Bft) S 180 0 min 0,000 mm 0 W/m 7,3 C 9,9 C 3,2 km/h (1 Bft) 100 %
20.05.2016 01:00 9,8 C 9,8 C 9,9 C 85 % 1017,7 hPa 0,0 l/m 0,0 km/h (0 Bft) S-SO 157 0 min 0,000 mm 0 W/m 7,4 C 9,8 C 1,6 km/h (1 Bft) 100 %
20.05.2016 01:10 9,6 C 9,6 C 9,8 C 85 % 1017,7 hPa 0,0 l/m 1,6 km/h (1 Bft) S-SO 157 0 min 0,000 mm 0 W/m 7,2 C 9,6 C 6,4 km/h (2 Bft) 100 %
20.05.2016 01:20 9,5 C 9,5 C 9,6 C 86 % 1017,8 hPa 0,0 l/m 0,0 km/h (0 Bft) SO 135 0 min 0,000 mm 0 W/m 7,3 C 9,5 C 4,8 km/h (1 Bft) 100 %
20.05.2016 01:30 9,4 C 9,4 C 9,5 C 87 % 1017,9 hPa 0,0 l/m 0,0 km/h (0 Bft) SO 135 0 min 0,000 mm 0 W/m 7,3 C 9,4 C 4,8 km/h (1 Bft) 100 %
20.05.2016 01:40 9,4 C 9,3 C 9,4 C 87 % 1018,0 hPa 0,0 l/m 0,0 km/h (0 Bft) SO 135 0 min 0,000 mm 0 W/m 7,3 C 9,4 C 1,6 km/h (1 Bft) 100 %
20.05.2016 01:50 9,3 C 9,3 C 9,3 C 87 % 1018,2 hPa 0,0 l/m 0,0 km/h (0 Bft) SO 135 0 min 0,000 mm 0 W/m 7,2 C 9,3 C 3,2 km/h (1 Bft) 100 %
20.05.2016 02:00 9,2 C 9,2 C 9,3 C 87 % 1018,4 hPa 0,0 l/m 1,6 km/h (1 Bft) SO 135 0 min 0,000 mm 0 W/m 7,2 C 9,2 C 6,4 km/h (2 Bft) 100 %
20.05.2016 02:10 8,9 C 8,9 C 9,2 C 88 % 1018,4 hPa 0,0 l/m 0,0 km/h (0 Bft) SO 135 0 min 0,000 mm 0 W/m 7,0 C 8,9 C 1,6 km/h (1 Bft) 100 %
20.05.2016 02:20 8,8 C 8,8 C 8,9 C 88 % 1018,4 hPa 0,0 l/m 1,6 km/h (1 Bft) SO 135 0 min 0,000 mm 0 W/m 6,9 C 8,8 C 6,4 km/h (2 Bft) 100 %
20.05.2016 02:30 8,6 C 8,6 C 8,8 C 89 % 1018,4 hPa 0,0 l/m 0,0 km/h (0 Bft) SO 135 0 min 0,000 mm 0 W/m 6,9 C 8,6 C 4,8 km/h (1 Bft) 99 %
20.05.2016 02:40 8,6 C 8,6 C 8,6 C 89 % 1018,4 hPa 0,0 l/m 1,6 km/h (1 Bft) SO 135 0 min 0,000 mm 0 W/m 6,9 C 8,6 C 4,8 km/h (1 Bft) 100 %
20.05.2016 02:50 8,6 C 8,6 C 8,6 C 89 % 1018,4 hPa 0,0 l/m 0,0 km/h (0 Bft) S-SO 157 0 min 0,000 mm 0 W/m 6,9 C 8,6 C 4,8 km/h (1 Bft) 91 %
20.05.2016 03:00 8,4 C 8,4 C 8,6 C 89 % 1018,4 hPa 0,0 l/m 0,0 km/h (0 Bft) S-SO 157 0 min 0,000 mm 0 W/m 6,7 C 8,4 C 4,8 km/h (1 Bft) 100 %
20.05.2016 03:10 8,4 C 8,4 C 8,4 C 90 % 1018,4 hPa 0,0 l/m 1,6 km/h (1 Bft) SO 135 0 min 0,000 mm 0 W/m 6,9 C 8,4 C 8,0 km/h (2 Bft) 100 %
20.05.2016 03:20 8,2 C 8,2 C 8,4 C 90 % 1018,4 hPa 0,0 l/m 1,6 km/h (1 Bft) S-SO 157 0 min 0,000 mm 0 W/m 6,7 C 8,2 C 6,4 km/h (2 Bft) 100 %
20.05.2016 03:30 8,1 C 8,1 C 8,2 C 90 % 1018,6 hPa 0,0 l/m 0,0 km/h (0 Bft) SO 135 0 min 0,000 mm 0 W/m 6,6 C 8,1 C 3,2 km/h (1 Bft) 100 %
20.05.2016 03:40 8,0 C 8,0 C 8,1 C 90 % 1018,6 hPa 0,0 l/m 3,2 km/h (1 Bft) SO 135 0 min 0,000 mm 0 W/m 6,5 C 8,0 C 8,0 km/h (2 Bft) 100 %
20.05.2016 03:50 7,9 C 7,9 C 8,0 C 90 % 1018,5 hPa 0,0 l/m 1,6 km/h (1 Bft) SO 135 0 min 0,000 mm 0 W/m 6,4 C 7,9 C 8,0 km/h (2 Bft) 100 %
20.05.2016 04:00 7,8 C 7,8 C 7,9 C 90 % 1018,4 hPa 0,0 l/m 1,6 km/h (1 Bft) SO 135 0 min 0,000 mm 0 W/m 6,3 C 7,8 C 8,0 km/h (2 Bft) 100 %
20.05.2016 04:10 7,9 C 7,8 C 7,9 C 90 % 1018,4 hPa 0,0 l/m 3,2 km/h (1 Bft) SO 135 0 min 0,000 mm 0 W/m 6,4 C 7,9 C 8,0 km/h (2 Bft) 100 %
20.05.2016 04:20 7,9 C 7,9 C 7,9 C 90 % 1018,6 hPa 0,0 l/m 0,0 km/h (0 Bft) N 0 0 min 0,000 mm 0 W/m 6,4 C 7,9 C 0,0 km/h (0 Bft) 100 %
20.05.2016 04:30 7,7 C 7,7 C 7,9 C 91 % 1018,7 hPa 0,0 l/m 0,0 km/h (0 Bft) N 0 0 min 0,000 mm 0 W/m 6,3 C 7,7 C 0,0 km/h (0 Bft) 100 %
20.05.2016 04:40 7,6 C 7,6 C 7,7 C 91 % 1018,8 hPa 0,0 l/m 0,0 km/h (0 Bft) N 0 0 min 0,000 mm 0 W/m 6,2 C 7,6 C 0,0 km/h (0 Bft) 100 %
20.05.2016 04:50 7,5 C 7,5 C 7,6 C 90 % 1018,8 hPa 0,0 l/m 0,0 km/h (0 Bft) N 0 0 min 0,000 mm 0 W/m 6,0 C 7,5 C 0,0 km/h (0 Bft) 100 %
20.05.2016 05:00 7,6 C 7,5 C 7,6 C 91 % 1019,0 hPa 0,0 l/m 0,0 km/h (0 Bft) SO 135 0 min 0,000 mm 0 W/m 6,2 C 7,6 C 1,6 km/h (1 Bft) 100 %
20.05.2016 05:10 7,6 C 7,6 C 7,6 C 91 % 1019,0 hPa 0,0 l/m 0,0 km/h (0 Bft) N 0 0 min 0,000 mm 0 W/m 6,2 C 7,6 C 0,0 km/h (0 Bft) 100 %
20.05.2016 05:20 7,5 C 7,5 C 7,6 C 90 % 1018,9 hPa 0,0 l/m 0,0 km/h (0 Bft) SO 135 0 min 0,000 mm 0 W/m 6,0 C 7,5 C 1,6 km/h (1 Bft) 100 %
20.05.2016 05:30 7,6 C 7,5 C 7,6 C 90 % 1018,9 hPa 0,0 l/m 0,0 km/h (0 Bft) N 0 0 min 0,000 mm 0 W/m 6,1 C 7,6 C 0,0 km/h (0 Bft) 100 %
20.05.2016 05:40 7,4 C 7,3 C 7,6 C 91 % 1018,9 hPa 0,0 l/m 1,6 km/h (1 Bft) SO 135 0 min 0,000 mm 0 W/m 6,0 C 7,4 C 6,4 km/h (2 Bft) 100 %
20.05.2016 05:50 7,6 C 7,4 C 7,6 C 90 % 1019,1 hPa 0,0 l/m 0,0 km/h (0 Bft) SO 135 0 min 0,000 mm 0 W/m 6,1 C 7,6 C 3,2 km/h (1 Bft) 100 %
20.05.2016 06:00 7,3 C 7,3 C 7,6 C 91 % 1019,2 hPa 0,0 l/m 0,0 km/h (0 Bft) N 0 0 min 0,000 mm 0 W/m 5,9 C 7,3 C 0,0 km/h (0 Bft) 100 %
20.05.2016 06:10 7,3 C 7,3 C 7,3 C 91 % 1019,1 hPa 0,0 l/m 0,0 km/h (0 Bft) N 0 0 min 0,000 mm 0 W/m 5,9 C 7,3 C 0,0 km/h (0 Bft) 100 %
20.05.2016 06:20 7,3 C 7,3 C 7,4 C 91 % 1019,1 hPa 0,0 l/m 0,0 km/h (0 Bft) N 0 0 min 0,000 mm 0 W/m 5,9 C 7,3 C 0,0 km/h (0 Bft) 100 %
20.05.2016 06:30 7,4 C 7,3 C 7,4 C 91 % 1019,3 hPa 0,0 l/m 0,0 km/h (0 Bft) N 0 0 min 0,000 mm 0 W/m 6,0 C 7,4 C 0,0 km/h (0 Bft) 100 %
20.05.2016 06:40 7,4 C 7,4 C 7,4 C 91 % 1019,5 hPa 0,0 l/m 0,0 km/h (0 Bft) SO 135 0 min 0,000 mm 0 W/m 6,0 C 7,4 C 6,4 km/h (2 Bft) 100 %
20.05.2016 06:50 7,3 C 7,3 C 7,4 C 91 % 1019,7 hPa 0,0 l/m 0,0 km/h (0 Bft) SO 135 0 min 0,000 mm 0 W/m 5,9 C 7,3 C 4,8 km/h (1 Bft) 100 %
20.05.2016 07:00 7,3 C 7,3 C 7,3 C 91 % 1019,8 hPa 0,0 l/m 0,0 km/h (0 Bft) N 0 0 min 0,000 mm 0 W/m 5,9 C 7,3 C 0,0 km/h (0 Bft) 100 %
20.05.2016 07:10 7,3 C 7,3 C 7,3 C 91 % 1019,8 hPa 0,0 l/m 0,0 km/h (0 Bft) N 0 0 min 0,000 mm 0 W/m 5,9 C 7,3 C 0,0 km/h (0 Bft) 100 %
20.05.2016 07:20 7,5 C 7,3 C 7,5 C 91 % 1019,8 hPa 0,0 l/m 1,6 km/h (1 Bft) SO 135 0 min 0,000 mm 0 W/m 6,1 C 7,5 C 4,8 km/h (1 Bft) 100 %
20.05.2016 07:30 7,8 C 7,5 C 7,8 C 91 % 1019,8 hPa 0,0 l/m 1,6 km/h (1 Bft) SO 135 0 min 0,000 mm 0 W/m 6,4 C 7,8 C 4,8 km/h (1 Bft) 100 %
20.05.2016 07:40 8,1 C 7,8 C 8,1 C 91 % 1020,0 hPa 0,0 l/m 0,0 km/h (0 Bft) N 0 0 min 0,000 mm 0 W/m 6,7 C 8,1 C 0,0 km/h (0 Bft) 88 %
20.05.2016 07:50 8,4 C 8,1 C 8,4 C 91 % 1019,9 hPa 0,0 l/m 0,0 km/h (0 Bft) N 0 0 min 0,000 mm 0 W/m 7,0 C 8,4 C 0,0 km/h (0 Bft) 100 %
20.05.2016 08:00 8,8 C 8,4 C 8,8 C 91 % 1019,9 hPa 0,0 l/m 0,0 km/h (0 Bft) S-SO 157 0 min 0,000 mm 19 W/m 7,4 C 8,8 C 3,2 km/h (1 Bft) 100 %
20.05.2016 08:10 9,1 C 8,8 C 9,1 C 91 % 1019,9 hPa 0,0 l/m 1,6 km/h (1 Bft) SO 135 0 min 0,000 mm 35 W/m 7,7 C 9,1 C 8,0 km/h (2 Bft) 100 %
20.05.2016 08:20 9,6 C 9,1 C 9,6 C 91 % 1019,9 hPa 0,0 l/m 1,6 km/h (1 Bft) S-SO 157 10 min 0,000 mm 269 W/m 8,2 C 9,6 C 8,0 km/h (2 Bft) 100 %
20.05.2016 08:30 10,0 C 9,6 C 10,0 C 90 % 1019,9 hPa 0,0 l/m 1,6 km/h (1 Bft) S-SO 157 10 min 0,000 mm 236 W/m 8,4 C 10,0 C 6,4 km/h (2 Bft) 100 %
20.05.2016 08:40 10,6 C 10,0 C 10,6 C 90 % 1020,1 hPa 0,0 l/m 1,6 km/h (1 Bft) S-SO 157 10 min 0,000 mm 345 W/m 9,0 C 10,6 C 6,4 km/h (2 Bft) 100 %
20.05.2016 08:50 11,3 C 10,6 C 11,3 C 89 % 1020,1 hPa 0,0 l/m 1,6 km/h (1 Bft) S-SW 202 10 min 0,000 mm 350 W/m 9,6 C 11,3 C 9,7 km/h (2 Bft) 99 %
20.05.2016 09:00 12,1 C 11,3 C 12,1 C 88 % 1020,1 hPa 0,0 l/m 1,6 km/h (1 Bft) S-SW 202 10 min 0,102 mm 448 W/m 10,2 C 12,1 C 9,7 km/h (2 Bft) 97 %
20.05.2016 09:10 12,7 C 12,1 C 12,7 C 84 % 1020,0 hPa 0,0 l/m 4,8 km/h (1 Bft) S-SW 202 10 min 0,000 mm 455 W/m 10,1 C 12,7 C 11,3 km/h (2 Bft) 98 %
20.05.2016 09:20 13,2 C 12,7 C 13,2 C 83 % 1020,0 hPa 0,0 l/m 3,2 km/h (1 Bft) S-SW 202 10 min 0,000 mm 466 W/m 10,4 C 13,2 C 11,3 km/h (2 Bft) 97 %
20.05.2016 09:30 13,4 C 13,2 C 13,4 C 81 % 1020,1 hPa 0,0 l/m 1,6 km/h (1 Bft) W-NW 292 10 min 0,000 mm 169 W/m 10,2 C 13,4 C 9,7 km/h (2 Bft) 97 %
20.05.2016 09:40 13,4 C 13,3 C 13,4 C 81 % 1020,1 hPa 0,0 l/m 4,8 km/h (1 Bft) W 270 10 min 0,000 mm 183 W/m 10,2 C 13,4 C 11,3 km/h (2 Bft) 97 %
20.05.2016 09:50 14,0 C 13,4 C 14,0 C 79 % 1020,1 hPa 0,0 l/m 4,8 km/h (1 Bft) SW 225 10 min 0,000 mm 603 W/m 10,4 C 14,0 C 14,5 km/h (3 Bft) 97 %
20.05.2016 10:00 14,5 C 14,0 C 14,5 C 78 % 1020,1 hPa 0,0 l/m 3,2 km/h (1 Bft) S-SW 202 10 min 0,178 mm 643 W/m 10,7 C 14,5 C 16,1 km/h (3 Bft) 98 %
20.05.2016 10:10 15,1 C 14,5 C 15,1 C 79 % 1019,9 hPa 0,0 l/m 3,2 km/h (1 Bft) SW 225 10 min 0,000 mm 722 W/m 11,5 C 15,1 C 12,9 km/h (3 Bft) 97 %
20.05.2016 10:20 15,4 C 15,1 C 15,4 C 74 % 1019,9 hPa 0,0 l/m 4,8 km/h (1 Bft) S-SW 202 10 min 0,000 mm 682 W/m 10,8 C 15,4 C 14,5 km/h (3 Bft) 97 %
20.05.2016 10:30 15,8 C 15,4 C 15,8 C 73 % 1019,9 hPa 0,0 l/m 4,8 km/h (1 Bft) S-SW 202 10 min 0,000 mm 744 W/m 11,0 C 15,8 C 16,1 km/h (3 Bft) 98 %
20.05.2016 10:40 15,9 C 15,8 C 15,9 C 73 % 1019,9 hPa 0,0 l/m 4,8 km/h (1 Bft) S 180 10 min 0,000 mm 800 W/m 11,1 C 15,9 C 17,7 km/h (3 Bft) 98 %
20.05.2016 10:50 16,1 C 15,9 C 16,1 C 70 % 1019,9 hPa 0,0 l/m 4,8 km/h (1 Bft) W 270 10 min 0,000 mm 837 W/m 10,6 C 16,1 C 17,7 km/h (3 Bft) 97 %
20.05.2016 11:00 15,8 C 15,8 C 16,1 C 70 % 1019,9 hPa 0,0 l/m 4,8 km/h (1 Bft) SW 225 10 min 0,305 mm 724 W/m 10,3 C 15,8 C 16,1 km/h (3 Bft) 97 %
20.05.2016 11:10 16,3 C 15,8 C 16,3 C 72 % 1019,8 hPa 0,0 l/m 8,0 km/h (2 Bft) S-SW 202 10 min 0,000 mm 888 W/m 11,2 C 15,5 C 19,3 km/h (3 Bft) 98 %
20.05.2016 11:20 17,1 C 16,3 C 17,1 C 70 % 1019,8 hPa 0,0 l/m 8,0 km/h (2 Bft) SW 225 10 min 0,000 mm 909 W/m 11,6 C 16,3 C 20,9 km/h (4 Bft) 97 %
20.05.2016 11:30 17,0 C 17,0 C 17,3 C 68 % 1019,8 hPa 0,0 l/m 9,7 km/h (2 Bft) S-SW 202 10 min 0,000 mm 888 W/m 11,0 C 15,4 C 17,7 km/h (3 Bft) 97 %
20.05.2016 11:40 16,5 C 16,5 C 17,0 C 69 % 1019,8 hPa 0,0 l/m 6,4 km/h (2 Bft) S-SW 202 10 min 0,000 mm 671 W/m 10,8 C 16,5 C 19,3 km/h (3 Bft) 97 %
20.05.2016 11:50 16,3 C 16,2 C 16,4 C 67 % 1019,7 hPa 0,0 l/m 3,2 km/h (1 Bft) W 270 10 min 0,000 mm 944 W/m 10,2 C 16,3 C 17,7 km/h (3 Bft) 97 %
20.05.2016 12:00 16,8 C 16,3 C 16,9 C 63 % 1019,6 hPa 0,0 l/m 4,8 km/h (1 Bft) W 270 10 min 0,356 mm 983 W/m 9,7 C 16,8 C 16,1 km/h (3 Bft) 98 %
20.05.2016 12:10 16,6 C 16,4 C 16,8 C 69 % 1019,7 hPa 0,0 l/m 8,0 km/h (2 Bft) W-SW 247 10 min 0,000 mm 895 W/m 10,9 C 15,8 C 19,3 km/h (3 Bft) 97 %
20.05.2016 12:20 17,3 C 16,6 C 17,4 C 65 % 1019,7 hPa 0,0 l/m 6,4 km/h (2 Bft) SW 225 10 min 0,000 mm 932 W/m 10,7 C 17,3 C 24,1 km/h (4 Bft) 98 %
20.05.2016 12:30 17,1 C 17,1 C 17,4 C 61 % 1019,8 hPa 0,0 l/m 6,4 km/h (2 Bft) W 270 10 min 0,000 mm 276 W/m 9,5 C 17,1 C 17,7 km/h (3 Bft) 98 %
20.05.2016 12:40 16,7 C 16,7 C 17,1 C 63 % 1019,7 hPa 0,0 l/m 3,2 km/h (1 Bft) W 270 10 min 0,000 mm 868 W/m 9,6 C 16,7 C 9,7 km/h (2 Bft) 98 %
20.05.2016 12:50 16,6 C 16,6 C 16,7 C 64 % 1019,8 hPa 0,0 l/m 3,2 km/h (1 Bft) W 270 10 min 0,000 mm 204 W/m 9,8 C 16,6 C 16,1 km/h (3 Bft) 97 %
20.05.2016 13:00 17,2 C 16,6 C 17,2 C 64 % 1019,8 hPa 0,0 l/m 6,4 km/h (2 Bft) S-SW 202 10 min 0,279 mm 882 W/m 10,3 C 17,2 C 19,3 km/h (3 Bft) 97 %
20.05.2016 13:10 17,3 C 17,2 C 17,3 C 62 % 1019,7 hPa 0,0 l/m 8,0 km/h (2 Bft) SW 225 10 min 0,000 mm 946 W/m 9,9 C 16,5 C 24,1 km/h (4 Bft) 98 %
20.05.2016 13:20 17,6 C 17,3 C 17,6 C 61 % 1019,7 hPa 0,0 l/m 9,7 km/h (2 Bft) W-SW 247 10 min 0,000 mm 874 W/m 10,0 C 16,1 C 19,3 km/h (3 Bft) 97 %
20.05.2016 13:30 17,7 C 17,6 C 17,7 C 60 % 1019,6 hPa 0,0 l/m 8,0 km/h (2 Bft) W 270 10 min 0,000 mm 652 W/m 9,8 C 16,9 C 22,5 km/h (4 Bft) 97 %
20.05.2016 13:40 17,8 C 17,6 C 17,8 C 62 % 1019,7 hPa 0,0 l/m 9,7 km/h (2 Bft) W-NW 292 10 min 0,000 mm 759 W/m 10,4 C 16,3 C 17,7 km/h (3 Bft) 98 %
20.05.2016 13:50 17,7 C 17,7 C 17,8 C 61 % 1019,6 hPa 0,0 l/m 6,4 km/h (2 Bft) W 270 10 min 0,000 mm 643 W/m 10,1 C 17,7 C 14,5 km/h (3 Bft) 97 %
20.05.2016 14:00 17,7 C 17,7 C 17,7 C 63 % 1019,5 hPa 0,0 l/m 8,0 km/h (2 Bft) W 270 10 min 0,330 mm 666 W/m 10,6 C 16,9 C 19,3 km/h (3 Bft) 98 %
20.05.2016 14:10 17,9 C 17,7 C 17,9 C 60 % 1019,5 hPa 0,0 l/m 4,8 km/h (1 Bft) W 270 10 min 0,000 mm 406 W/m 10,0 C 17,9 C 16,1 km/h (3 Bft) 98 %
20.05.2016 14:20 18,1 C 17,9 C 18,1 C 61 % 1019,4 hPa 0,0 l/m 8,0 km/h (2 Bft) W 270 10 min 0,000 mm 680 W/m 10,5 C 17,4 C 16,1 km/h (3 Bft) 97 %
20.05.2016 14:30 18,3 C 18,1 C 18,3 C 60 % 1019,4 hPa 0,0 l/m 4,8 km/h (1 Bft) W-NW 292 10 min 0,000 mm 780 W/m 10,4 C 18,3 C 16,1 km/h (3 Bft) 98 %
20.05.2016 14:40 18,6 C 18,3 C 18,6 C 58 % 1019,3 hPa 0,0 l/m 8,0 km/h (2 Bft) W-SW 247 10 min 0,000 mm 715 W/m 10,2 C 17,9 C 17,7 km/h (3 Bft) 98 %
20.05.2016 14:50 18,8 C 18,6 C 18,8 C 59 % 1019,1 hPa 0,0 l/m 3,2 km/h (1 Bft) W 270 10 min 0,000 mm 747 W/m 10,6 C 18,8 C 16,1 km/h (3 Bft) 98 %
20.05.2016 15:00 18,9 C 18,8 C 18,9 C 60 % 1019,2 hPa 0,0 l/m 8,0 km/h (2 Bft) SW 225 10 min 0,356 mm 763 W/m 11,0 C 18,2 C 22,5 km/h (4 Bft) 98 %
20.05.2016 15:10 19,1 C 18,9 C 19,2 C 55 % 1019,3 hPa 0,0 l/m 6,4 km/h (2 Bft) W-NW 292 10 min 0,000 mm 770 W/m 9,8 C 19,1 C 17,7 km/h (3 Bft) 98 %
20.05.2016 15:20 18,8 C 18,8 C 19,1 C 56 % 1019,2 hPa 0,0 l/m 4,8 km/h (1 Bft) W-SW 247 10 min 0,000 mm 666 W/m 9,8 C 18,8 C 17,7 km/h (3 Bft) 98 %
20.05.2016 15:30 18,5 C 18,5 C 18,8 C 53 % 1019,2 hPa 0,0 l/m 6,4 km/h (2 Bft) W 270 10 min 0,000 mm 213 W/m 8,7 C 18,5 C 20,9 km/h (4 Bft) 97 %
20.05.2016 15:40 18,9 C 18,5 C 18,9 C 58 % 1019,0 hPa 0,0 l/m 3,2 km/h (1 Bft) W-NW 292 10 min 0,000 mm 373 W/m 10,5 C 18,9 C 16,1 km/h (3 Bft) 97 %
20.05.2016 15:50 19,2 C 18,9 C 19,3 C 52 % 1019,0 hPa 0,0 l/m 8,0 km/h (2 Bft) SW 225 10 min 0,000 mm 406 W/m 9,1 C 18,5 C 20,9 km/h (4 Bft) 98 %
20.05.2016 16:00 19,1 C 19,1 C 19,2 C 55 % 1018,9 hPa 0,0 l/m 3,2 km/h (1 Bft) W 270 10 min 0,203 mm 691 W/m 9,8 C 19,1 C 16,1 km/h (3 Bft) 98 %
20.05.2016 16:10 19,3 C 19,1 C 19,3 C 49 % 1018,9 hPa 0,0 l/m 4,8 km/h (1 Bft) W 270 10 min 0,000 mm 570 W/m 8,3 C 19,3 C 14,5 km/h (3 Bft) 98 %
20.05.2016 16:20 18,8 C 18,8 C 19,3 C 54 % 1018,9 hPa 0,0 l/m 4,8 km/h (1 Bft) SW 225 10 min 0,000 mm 622 W/m 9,3 C 18,8 C 17,7 km/h (3 Bft) 98 %
20.05.2016 16:30 19,2 C 18,8 C 19,2 C 52 % 1019,0 hPa 0,0 l/m 8,0 km/h (2 Bft) W-NW 292 10 min 0,000 mm 290 W/m 9,1 C 18,5 C 19,3 km/h (3 Bft) 98 %
20.05.2016 16:40 19,1 C 19,1 C 19,3 C 53 % 1019,0 hPa 0,0 l/m 8,0 km/h (2 Bft) W-NW 292 10 min 0,000 mm 302 W/m 9,3 C 18,4 C 22,5 km/h (4 Bft) 98 %
20.05.2016 16:50 18,8 C 18,8 C 19,1 C 56 % 1019,0 hPa 0,0 l/m 6,4 km/h (2 Bft) SW 225 0 min 0,000 mm 128 W/m 9,8 C 18,8 C 14,5 km/h (3 Bft) 98 %
20.05.2016 17:00 18,5 C 18,5 C 18,8 C 58 % 1018,9 hPa 0,0 l/m 3,2 km/h (1 Bft) SW 225 0 min 0,127 mm 105 W/m 10,1 C 18,5 C 11,3 km/h (2 Bft) 97 %
20.05.2016 17:10 18,7 C 18,4 C 18,7 C 58 % 1018,8 hPa 0,0 l/m 3,2 km/h (1 Bft) W-SW 247 0 min 0,000 mm 123 W/m 10,3 C 18,7 C 11,3 km/h (2 Bft) 87 %
20.05.2016 17:20 18,8 C 18,7 C 18,8 C 55 % 1018,9 hPa 0,0 l/m 3,2 km/h (1 Bft) W 270 0 min 0,000 mm 77 W/m 9,6 C 18,8 C 19,3 km/h (3 Bft) 97 %
20.05.2016 17:30 18,7 C 18,7 C 18,8 C 56 % 1018,8 hPa 0,0 l/m 1,6 km/h (1 Bft) W-SW 247 0 min 0,000 mm 97 W/m 9,7 C 18,7 C 12,9 km/h (3 Bft) 98 %
20.05.2016 17:40 18,9 C 18,7 C 18,9 C 56 % 1018,7 hPa 0,0 l/m 1,6 km/h (1 Bft) W 270 0 min 0,000 mm 109 W/m 9,9 C 18,9 C 9,7 km/h (2 Bft) 96 %
20.05.2016 17:50 18,8 C 18,8 C 18,9 C 52 % 1018,6 hPa 0,0 l/m 4,8 km/h (1 Bft) W-NW 292 0 min 0,000 mm 72 W/m 8,7 C 18,8 C 11,3 km/h (2 Bft) 98 %
20.05.2016 18:00 18,7 C 18,7 C 18,8 C 55 % 1018,6 hPa 0,0 l/m 4,8 km/h (1 Bft) W 270 0 min 0,051 mm 62 W/m 9,5 C 18,7 C 16,1 km/h (3 Bft) 98 %
20.05.2016 18:10 18,5 C 18,5 C 18,7 C 56 % 1018,6 hPa 0,0 l/m 3,2 km/h (1 Bft) W-SW 247 0 min 0,000 mm 118 W/m 9,6 C 18,5 C 16,1 km/h (3 Bft) 97 %
20.05.2016 18:20 18,4 C 18,4 C 18,5 C 55 % 1018,6 hPa 0,0 l/m 3,2 km/h (1 Bft) SW 225 0 min 0,000 mm 120 W/m 9,2 C 18,4 C 9,7 km/h (2 Bft) 98 %
20.05.2016 18:30 18,4 C 18,4 C 18,4 C 54 % 1018,6 hPa 0,0 l/m 3,2 km/h (1 Bft) W 270 0 min 0,000 mm 77 W/m 8,9 C 18,4 C 14,5 km/h (3 Bft) 98 %
20.05.2016 18:40 18,3 C 18,3 C 18,4 C 56 % 1018,7 hPa 0,0 l/m 1,6 km/h (1 Bft) W 270 0 min 0,000 mm 37 W/m 9,4 C 18,3 C 9,7 km/h (2 Bft) 98 %
20.05.2016 18:50 18,3 C 18,3 C 18,3 C 55 % 1018,6 hPa 0,0 l/m 3,2 km/h (1 Bft) W 270 0 min 0,000 mm 74 W/m 9,1 C 18,3 C 9,7 km/h (2 Bft) 98 %
20.05.2016 19:00 18,3 C 18,3 C 18,3 C 60 % 1018,7 hPa 0,0 l/m 3,2 km/h (1 Bft) W-SW 247 0 min 0,051 mm 76 W/m 10,4 C 18,3 C 9,7 km/h (2 Bft) 97 %
20.05.2016 19:10 18,3 C 18,3 C 18,3 C 58 % 1018,7 hPa 0,0 l/m 1,6 km/h (1 Bft) W-SW 247 0 min 0,000 mm 39 W/m 9,9 C 18,3 C 8,0 km/h (2 Bft) 98 %
20.05.2016 19:20 18,2 C 18,2 C 18,3 C 60 % 1018,6 hPa 0,0 l/m 1,6 km/h (1 Bft) W 270 0 min 0,000 mm 25 W/m 10,3 C 18,2 C 9,7 km/h (2 Bft) 97 %
20.05.2016 19:30 18,1 C 18,1 C 18,2 C 60 % 1018,6 hPa 0,0 l/m 3,2 km/h (1 Bft) W 270 0 min 0,000 mm 14 W/m 10,2 C 18,1 C 11,3 km/h (2 Bft) 98 %
20.05.2016 19:40 17,8 C 17,8 C 18,1 C 58 % 1018,7 hPa 0,0 l/m 3,2 km/h (1 Bft) W 270 0 min 0,000 mm 0 W/m 9,4 C 17,8 C 11,3 km/h (2 Bft) 98 %
20.05.2016 19:50 17,7 C 17,7 C 18,1 C 60 % 1018,7 hPa 0,0 l/m 0,4 km/h (0 Bft) W 269 0 min 0,000 mm 0 W/m 9,8 C 17,7 C 4,8 km/h (1 Bft) 100 %
20.05.2016 20:00 17,4 C 17,4 C 17,7 C 61 % 1018,8 hPa 0,0 l/m 2,5 km/h (1 Bft) W-SW 258 0 min 0,000 mm 0 W/m 9,8 C 17,4 C 8,0 km/h (2 Bft) 100 %
20.05.2016 20:10 17,2 C 17,2 C 17,4 C 62 % 1018,8 hPa 0,0 l/m 0,1 km/h (0 Bft) W-SW 258 0 min 0,000 mm 0 W/m 9,9 C 17,2 C 3,2 km/h (1 Bft) 100 %
20.05.2016 20:20 16,9 C 16,9 C 17,2 C 65 % 1018,8 hPa 0,0 l/m 0,0 km/h (0 Bft) W-SW 258 0 min 0,000 mm 0 W/m 10,3 C 16,9 C 1,6 km/h (1 Bft) 100 %
20.05.2016 20:30 16,7 C 16,7 C 16,9 C 64 % 1018,8 hPa 0,0 l/m 0,0 km/h (0 Bft) W-SW 258 0 min 0,000 mm 0 W/m 9,9 C 16,7 C 1,6 km/h (1 Bft) 100 %
20.05.2016 20:40 16,4 C 16,4 C 16,7 C 64 % 1018,9 hPa 0,0 l/m 0,0 km/h (0 Bft) W-SW 258 0 min 0,000 mm 0 W/m 9,6 C 16,4 C 0,0 km/h (0 Bft) 99 %
20.05.2016 20:50 16,0 C 16,0 C 16,4 C 65 % 1018,8 hPa 0,0 l/m 0,0 km/h (0 Bft) W-SW 258 0 min 0,000 mm 0 W/m 9,4 C 16,0 C 1,6 km/h (1 Bft) 100 %
20.05.2016 21:00 15,7 C 15,7 C 16,0 C 67 % 1018,7 hPa 0,0 l/m 0,0 km/h (0 Bft) W-SW 258 0 min 0,025 mm 0 W/m 9,6 C 15,7 C 0,0 km/h (0 Bft) 100 %
20.05.2016 21:10 15,5 C 15,5 C 15,7 C 69 % 1018,8 hPa 0,0 l/m 0,0 km/h (0 Bft) N 0 0 min 0,000 mm 0 W/m 9,8 C 15,5 C 0,0 km/h (0 Bft) 98 %
20.05.2016 21:20 15,3 C 15,3 C 15,5 C 68 % 1018,9 hPa 0,0 l/m 0,0 km/h (0 Bft) N 0 0 min 0,000 mm 0 W/m 9,4 C 15,3 C 0,0 km/h (0 Bft) 98 %
20.05.2016 21:30 15,2 C 15,2 C 15,3 C 67 % 1019,0 hPa 0,0 l/m 0,0 km/h (0 Bft) W-SW 247 0 min 0,000 mm 0 W/m 9,1 C 15,2 C 3,2 km/h (1 Bft) 98 %
20.05.2016 21:40 15,1 C 15,1 C 15,2 C 69 % 1019,0 hPa 0,0 l/m 0,0 km/h (0 Bft) N 0 0 min 0,000 mm 0 W/m 9,5 C 15,1 C 0,0 km/h (0 Bft) 97 %
20.05.2016 21:50 15,1 C 15,1 C 15,1 C 69 % 1019,2 hPa 0,0 l/m 1,6 km/h (1 Bft) W-SW 247 0 min 0,000 mm 0 W/m 9,5 C 15,1 C 3,2 km/h (1 Bft) 98 %
20.05.2016 22:00 15,1 C 15,1 C 15,1 C 69 % 1019,2 hPa 0,0 l/m 0,0 km/h (0 Bft) N 0 0 min 0,025 mm 0 W/m 9,5 C 15,1 C 0,0 km/h (0 Bft) 98 %
20.05.2016 22:10 15,1 C 15,1 C 15,1 C 69 % 1019,1 hPa 0,0 l/m 0,0 km/h (0 Bft) W-SW 247 0 min 0,000 mm 0 W/m 9,5 C 15,1 C 1,6 km/h (1 Bft) 97 %
20.05.2016 22:20 15,1 C 15,1 C 15,1 C 69 % 1019,1 hPa 0,0 l/m 0,0 km/h (0 Bft) N 0 0 min 0,000 mm 0 W/m 9,5 C 15,1 C 0,0 km/h (0 Bft) 98 %
20.05.2016 22:30 15,1 C 15,1 C 15,1 C 69 % 1019,1 hPa 0,0 l/m 0,0 km/h (0 Bft) W-SW 247 0 min 0,000 mm 0 W/m 9,5 C 15,1 C 1,6 km/h (1 Bft) 98 %
20.05.2016 22:40 14,9 C 14,9 C 15,1 C 69 % 1019,1 hPa 0,0 l/m 0,0 km/h (0 Bft) N 0 0 min 0,000 mm 0 W/m 9,3 C 14,9 C 0,0 km/h (0 Bft) 99 %
20.05.2016 22:50 14,7 C 14,7 C 14,9 C 70 % 1019,1 hPa 0,0 l/m 0,0 km/h (0 Bft) N 0 0 min 0,000 mm 0 W/m 9,3 C 14,7 C 0,0 km/h (0 Bft) 99 %
20.05.2016 23:00 14,5 C 14,5 C 14,7 C 71 % 1019,1 hPa 0,0 l/m 0,0 km/h (0 Bft) W-SW 247 0 min 0,025 mm 0 W/m 9,3 C 14,5 C 4,8 km/h (1 Bft) 100 %
20.05.2016 23:10 14,4 C 14,4 C 14,5 C 72 % 1019,2 hPa 0,0 l/m 0,0 km/h (0 Bft) W-SW 247 0 min 0,000 mm 0 W/m 9,4 C 14,4 C 3,2 km/h (1 Bft) 100 %
20.05.2016 23:20 14,5 C 14,4 C 14,5 C 73 % 1019,1 hPa 0,0 l/m 0,0 km/h (0 Bft) N 0 0 min 0,000 mm 0 W/m 9,7 C 14,5 C 0,0 km/h (0 Bft) 100 %
20.05.2016 23:30 14,6 C 14,5 C 14,6 C 72 % 1019,0 hPa 0,0 l/m 0,0 km/h (0 Bft) N 0 0 min 0,000 mm 0 W/m 9,6 C 14,6 C 0,0 km/h (0 Bft) 100 %
20.05.2016 23:40 14,6 C 14,5 C 14,6 C 73 % 1019,1 hPa 0,0 l/m 0,0 km/h (0 Bft) N 0 0 min 0,000 mm 0 W/m 9,8 C 14,6 C 0,0 km/h (0 Bft) 100 %
20.05.2016 23:50 14,6 C 14,5 C 14,6 C 73 % 1019,0 hPa 0,0 l/m 0,0 km/h (0 Bft) W-SW 247 0 min 0,000 mm 0 W/m 9,8 C 14,6 C 1,6 km/h (1 Bft) 100 %
_ Min-Zeit 05:40 05:40 06:10 16:10 00:00 - 00:00 - - - - - 06:00 06:00 00:00 00:10
Minimum _ 7,3 C 7,3 C 7,3 C 49 % 1017,4 hPa - 0,0 km/h (0 Bft) - - - - - 5,9 C 7,3 C 0,0 km/h (0 Bft) 70 %
_ Max-Zeit 15:50 16:00 15:50 04:30 08:40 00:00 11:30 - - 08:20 12:00 12:00 11:20 16:10 12:20 00:20
Maximum _ 19,3 C 19,1 C 19,3 C 91 % 1020,1 hPa 0,0 l/m 9,7 km/h
S-SW (2 Bft)
- - 10 min 0,356 mm 983 W/m 11,6 C 19,3 C 24,1 km/h
S-SW (4 Bft)
100 %
Durchschnitt _ 13,7 C 13,6 C 13,8 C 74 % 1019,1 hPa #0,0 l/m 2,5 km/h (1 Bft) W - #8:30 h #2,438 mm 471 W/m 8,8 C 13,6 C 8,7 km/h (2 Bft) 98 %
PRIVATE WETTERSTATION BILLIGHEIM-ALLFELD - www.neckar-odenwald-wetter.de - Holger Sonntag